createdAt,value
2019-05-20T00:02:27.508Z,5.33
2019-05-20T00:04:54.668Z,4.50
2019-05-20T00:07:25.109Z,5.42
2019-05-20T00:09:55.632Z,5.87
2019-05-20T00:12:26.068Z,5.17
2019-05-20T00:14:56.532Z,5.25
2019-05-20T00:17:27.040Z,4.95
2019-05-20T00:19:57.426Z,5.20
2019-05-20T00:22:27.893Z,5.30
2019-05-20T00:24:58.293Z,6.12
2019-05-20T00:27:28.824Z,5.83
2019-05-20T00:29:59.234Z,5.85
2019-05-20T00:32:40.589Z,5.10
2019-05-20T00:35:01.702Z,4.67
2019-05-20T00:37:32.150Z,5.25
2019-05-20T00:40:02.647Z,4.78
2019-05-20T00:42:34.156Z,6.75
2019-05-20T00:45:04.684Z,5.62
2019-05-20T00:47:46.645Z,5.20
2019-05-20T00:50:16.974Z,7.33
2019-05-20T00:52:47.406Z,5.15
2019-05-20T00:55:25.175Z,5.55
2019-05-20T00:57:55.563Z,5.12
2019-05-20T01:00:25.951Z,5.53
2019-05-20T01:02:57.422Z,5.20
2019-05-20T01:05:29.070Z,5.85
2019-05-20T01:07:59.439Z,4.87
2019-05-20T01:10:29.921Z,5.72
2019-05-20T01:13:00.392Z,6.28
2019-05-20T01:15:30.874Z,6.50
2019-05-20T01:18:01.346Z,5.20
2019-05-20T01:20:31.784Z,5.35
2019-05-20T01:23:02.236Z,4.85
2019-05-20T01:25:32.680Z,5.60
2019-05-20T01:28:02.960Z,5.47
2019-05-20T01:30:33.440Z,5.65
2019-05-20T01:33:13.457Z,4.83
2019-05-20T01:35:35.959Z,5.20
2019-05-20T01:38:06.355Z,5.85
2019-05-20T01:40:36.682Z,5.75
2019-05-20T01:43:08.317Z,5.70
2019-05-20T01:45:38.713Z,4.80
2019-05-20T01:48:19.224Z,4.53
2019-05-20T01:50:49.665Z,6.33
2019-05-20T01:53:20.063Z,4.83
2019-05-20T01:55:50.427Z,4.85
2019-05-20T01:58:20.822Z,5.45
2019-05-20T02:00:51.264Z,6.10
2019-05-20T02:03:30.910Z,5.15
2019-05-20T02:05:53.741Z,5.12
2019-05-20T02:08:24.090Z,5.12
2019-05-20T02:10:56.475Z,4.97
2019-05-20T02:13:28.416Z,6.90
2019-05-20T02:16:05.478Z,5.10
2019-05-20T02:18:35.851Z,5.65
2019-05-20T02:21:06.273Z,5.72
2019-05-20T02:23:36.706Z,4.92
2019-05-20T02:26:07.132Z,7.55
2019-05-20T02:28:37.470Z,6.17
2019-05-20T02:31:07.950Z,5.30
2019-05-20T02:33:50.811Z,5.67
2019-05-20T02:36:10.370Z,5.17
2019-05-20T02:38:40.742Z,5.83
2019-05-20T02:41:11.121Z,5.17
2019-05-20T02:43:41.671Z,5.08
2019-05-20T02:46:12.012Z,5.83
2019-05-20T02:48:42.426Z,5.83
2019-05-20T02:51:12.797Z,4.55
2019-05-20T02:53:43.188Z,5.42
2019-05-20T02:56:14.671Z,4.97
2019-05-20T02:58:45.073Z,5.80
2019-05-20T03:01:15.491Z,5.65
2019-05-20T03:03:45.930Z,5.00
2019-05-20T03:06:16.324Z,5.35
2019-05-20T03:08:46.758Z,5.75
2019-05-20T03:11:17.096Z,4.60
2019-05-20T03:13:47.497Z,6.05
2019-05-20T03:16:37.006Z,5.03
2019-05-20T03:19:07.443Z,7.08
2019-05-20T03:21:37.765Z,5.28
2019-05-20T03:24:08.196Z,5.70
2019-05-20T03:26:38.637Z,5.62
2019-05-20T03:29:09.050Z,5.08
2019-05-20T03:31:39.465Z,4.95
2019-05-20T03:34:09.976Z,4.45
2019-05-20T03:36:52.608Z,5.53
2019-05-20T03:39:23.105Z,5.80
2019-05-20T03:41:53.550Z,6.40
2019-05-20T03:44:23.911Z,5.37
2019-05-20T03:46:54.325Z,6.60
2019-05-20T03:49:24.684Z,5.58
2019-05-20T03:51:55.039Z,5.10
2019-05-20T03:54:25.557Z,6.12
2019-05-20T03:56:55.818Z,5.05
2019-05-20T03:59:26.297Z,4.95
2019-05-20T04:01:56.662Z,5.20
2019-05-20T04:04:26.999Z,5.50
2019-05-20T04:06:57.440Z,4.60
2019-05-20T04:09:27.816Z,5.42
2019-05-20T04:11:58.273Z,5.97
2019-05-20T04:14:28.716Z,5.33
2019-05-20T04:16:59.112Z,4.87
2019-05-20T04:19:48.535Z,5.37
2019-05-20T04:22:18.958Z,4.30
2019-05-20T04:24:49.257Z,5.62
2019-05-20T04:27:19.689Z,4.65
2019-05-20T04:29:50.075Z,4.85
2019-05-20T04:32:20.466Z,5.53
2019-05-20T04:34:50.990Z,4.70
2019-05-20T04:37:21.348Z,5.08
2019-05-20T04:39:51.820Z,4.87
2019-05-20T04:42:34.062Z,4.60
2019-05-20T04:45:04.437Z,6.47
2019-05-20T04:47:34.754Z,6.12
2019-05-20T04:50:05.241Z,5.15
2019-05-20T04:52:35.702Z,4.60
2019-05-20T04:55:06.159Z,4.83
2019-05-20T04:57:36.652Z,6.12
2019-05-20T05:00:07.835Z,4.75
2019-05-20T05:02:38.205Z,5.28
2019-05-20T05:05:08.520Z,5.17
2019-05-20T05:07:38.845Z,7.75
2019-05-20T05:10:09.225Z,5.97
2019-05-20T05:12:39.701Z,4.60
2019-05-20T05:15:09.981Z,5.28
2019-05-20T05:17:41.303Z,6.10
2019-05-20T05:20:18.478Z,4.95
2019-05-20T05:22:48.096Z,5.50
2019-05-20T05:25:18.454Z,4.17
2019-05-20T05:27:48.891Z,5.00
2019-05-20T05:30:19.349Z,5.60
2019-05-20T05:32:49.880Z,6.70
2019-05-20T05:35:20.259Z,5.35
2019-05-20T05:37:50.777Z,6.33
2019-05-20T05:40:24.520Z,5.05
2019-05-20T05:42:57.875Z,5.47
2019-05-20T05:45:32.089Z,4.65
2019-05-20T05:48:02.543Z,13.80
2019-05-20T05:50:32.929Z,8.43
2019-05-20T05:53:03.454Z,8.40
2019-05-20T05:55:33.862Z,8.83
2019-05-20T05:58:08.195Z,8.38
2019-05-20T06:00:36.530Z,9.23
2019-05-20T06:03:07.185Z,11.63
2019-05-20T06:05:37.558Z,12.90
2019-05-20T06:08:07.934Z,8.35
2019-05-20T06:10:38.338Z,9.55
2019-05-20T06:13:18.955Z,13.13
2019-05-20T06:15:54.505Z,15.23
2019-05-20T06:18:25.222Z,11.88
2019-05-20T06:20:56.539Z,19.00
2019-05-20T06:23:27.125Z,12.98
2019-05-20T06:29:12.957Z,11.83
2019-05-20T06:31:50.363Z,31.60
2019-05-20T06:36:50.332Z,16.05
2019-05-20T06:39:30.311Z,16.12
2019-05-20T06:42:02.830Z,14.93
2019-05-20T06:44:52.142Z,22.77
2019-05-20T06:47:18.390Z,13.55
2019-05-20T06:49:52.372Z,18.25
2019-05-20T06:52:35.379Z,18.45
2019-05-20T06:54:55.206Z,12.98
2019-05-20T06:57:31.090Z,14.93
2019-05-20T07:00:01.770Z,22.90
2019-05-20T07:02:34.032Z,21.40
2019-05-20T07:05:05.087Z,14.78
2019-05-20T07:07:37.335Z,13.03
2019-05-20T07:10:20.047Z,22.93
2019-05-20T07:12:53.691Z,16.80
2019-05-20T07:15:38.351Z,25.57
2019-05-20T07:18:12.962Z,23.87
2019-05-20T07:20:58.085Z,20.00
2019-05-20T07:23:32.018Z,21.75
2019-05-20T07:26:08.947Z,26.17
2019-05-20T07:28:39.674Z,21.60
2019-05-20T07:31:18.261Z,23.70
2019-05-20T07:34:00.596Z,15.63
2019-05-20T07:36:33.134Z,19.65
2019-05-20T07:39:05.739Z,17.65
2019-05-20T07:41:36.583Z,21.80
2019-05-20T07:44:07.553Z,23.20
2019-05-20T07:46:47.828Z,27.30
2019-05-20T07:49:18.800Z,14.73
2019-05-20T07:51:51.620Z,29.27
2019-05-20T07:54:26.060Z,19.32
2019-05-20T07:57:56.941Z,25.20
2019-05-20T08:00:27.738Z,22.15
2019-05-20T08:02:58.574Z,13.43
2019-05-20T08:05:29.735Z,16.62
2019-05-20T08:08:00.809Z,18.15
2019-05-20T08:10:35.581Z,22.50
2019-05-20T08:13:08.006Z,23.95
2019-05-20T08:15:38.582Z,12.82
2019-05-20T08:18:09.711Z,25.40
2019-05-20T08:20:40.441Z,22.67
2019-05-20T08:24:06.440Z,26.27
2019-05-20T08:26:37.234Z,26.07
2019-05-20T08:29:15.694Z,23.75
2019-05-20T08:31:46.306Z,92.33
2019-05-20T08:34:17.703Z,331.17
2019-05-20T08:36:49.459Z,147.80
2019-05-20T08:39:23.679Z,141.10
2019-05-20T08:41:55.432Z,97.57
2019-05-20T08:44:27.578Z,81.32
2019-05-20T08:46:58.309Z,65.42
2019-05-20T08:49:28.781Z,71.15
2019-05-20T08:51:59.396Z,68.00
2019-05-20T08:54:40.417Z,57.05
2019-05-20T08:57:11.663Z,42.85
2019-05-20T08:59:42.245Z,37.70
2019-05-20T09:02:12.740Z,39.38
2019-05-20T09:04:43.458Z,40.20
2019-05-20T09:07:20.255Z,37.38
2019-05-20T09:09:52.934Z,30.12
2019-05-20T09:12:23.696Z,32.48
2019-05-20T09:16:03.388Z,36.35
2019-05-20T09:18:36.034Z,21.15
2019-05-20T09:21:10.115Z,32.83
2019-05-20T09:23:41.438Z,26.95
2019-05-20T09:26:12.337Z,24.40
2019-05-20T09:28:44.304Z,17.82
2019-05-20T09:31:22.390Z,21.33
2019-05-20T09:33:54.107Z,23.00
2019-05-20T09:36:26.060Z,20.32
2019-05-20T09:38:57.243Z,25.08
2019-05-20T09:41:37.666Z,20.17
2019-05-20T09:44:08.128Z,19.30
2019-05-20T09:46:41.019Z,19.70
2019-05-20T09:49:14.949Z,17.80
2019-05-20T09:51:45.480Z,23.83
2019-05-20T09:54:16.112Z,18.27
2019-05-20T09:56:48.795Z,22.48
2019-05-20T09:59:19.040Z,21.60
2019-05-20T10:01:51.365Z,22.30
2019-05-20T10:04:37.936Z,25.02
2019-05-20T10:07:17.844Z,31.37
2019-05-20T10:09:48.623Z,20.60
2019-05-20T10:12:19.967Z,20.62
2019-05-20T10:14:54.298Z,21.60
2019-05-20T10:17:24.683Z,19.90
2019-05-20T10:19:55.454Z,18.37
2019-05-20T10:22:26.773Z,17.27
2019-05-20T10:25:01.165Z,16.23
2019-05-20T10:27:36.815Z,21.48
2019-05-20T10:30:07.551Z,17.12
2019-05-20T10:32:39.391Z,16.50
2019-05-20T10:35:09.907Z,15.15
2019-05-20T10:37:45.422Z,19.57
2019-05-20T10:40:25.087Z,19.85
2019-05-20T10:43:02.228Z,19.98
2019-05-20T10:45:37.157Z,16.77
2019-05-20T10:48:10.688Z,17.52
2019-05-20T10:50:42.850Z,14.95
2019-05-20T10:53:14.377Z,10.28
2019-05-20T10:55:45.945Z,12.58
2019-05-20T10:58:20.744Z,15.00
2019-05-20T11:01:02.618Z,15.05
2019-05-20T11:03:23.873Z,18.35
2019-05-20T11:05:54.623Z,13.60
2019-05-20T11:08:25.283Z,14.60
2019-05-20T11:10:55.590Z,29.37
2019-05-20T11:13:26.299Z,29.77
2019-05-20T11:15:58.594Z,30.92
2019-05-20T11:18:43.336Z,24.00
2019-05-20T11:21:14.481Z,23.85
2019-05-20T11:23:46.717Z,20.92
2019-05-20T11:26:18.952Z,17.85
2019-05-20T11:29:15.755Z,18.37
2019-05-20T11:32:07.019Z,20.70
2019-05-20T11:34:42.314Z,13.28
2019-05-20T11:37:13.870Z,14.47
2019-05-20T11:39:46.064Z,10.23
2019-05-20T11:42:16.943Z,14.87
2019-05-20T11:47:32.080Z,11.88
2019-05-20T11:50:03.244Z,12.05
2019-05-20T11:52:33.907Z,10.82
2019-05-20T11:55:04.754Z,13.55
2019-05-20T11:57:49.638Z,14.90
2019-05-20T12:00:23.648Z,22.10
2019-05-20T12:02:56.432Z,16.48
2019-05-20T12:05:28.999Z,16.50
2019-05-20T12:07:59.567Z,12.78
2019-05-20T12:10:41.016Z,12.93
2019-05-20T12:13:11.684Z,16.65
2019-05-20T12:15:42.295Z,17.87
2019-05-20T12:18:14.180Z,16.02
2019-05-20T12:20:44.963Z,19.95
2019-05-20T12:23:18.489Z,23.15
2019-05-20T12:25:53.620Z,19.25
2019-05-20T12:28:26.831Z,19.60
2019-05-20T12:31:48.082Z,19.60
2019-05-20T12:34:02.715Z,16.52
2019-05-20T12:36:51.293Z,19.85
2019-05-20T12:39:23.904Z,19.90
2019-05-20T12:42:02.989Z,22.05
2019-05-20T12:46:42.256Z,14.78
2019-05-20T12:49:12.951Z,20.37
2019-05-20T12:51:45.742Z,17.32
